Time;durP1;ratioP1;P1;durP2;ratioP2;P2;SDS_P1;SDS_P2;PMS_P1;PMS_P2;Temp;Humidity;BMP_temperature;BMP_pressure;BME280_temperature;BME280_humidity;BME280_pressure;Samples;Min_cycle;Max_cycle;Signal;HPM_P1;HPM_P2
2021/05/30 00:02:24;;;;;;;4.88;4.47;;;15.20;90.10;;;;;;6430499;22;20022;-96
2021/05/30 00:04:58;;;;;;;5.10;4.60;;;15.10;90.30;;;;;;6404997;22;19990;-95
2021/05/30 00:07:37;;;;;;;4.93;3.92;;;15.10;90.50;;;;;;6404806;22;19988;-95
2021/05/30 00:10:06;;;;;;;5.40;4.15;;;15.00;90.40;;;;;;6381079;22;20455;-95
2021/05/30 00:12:43;;;;;;;4.78;4.28;;;14.90;90.60;;;;;;6378547;22;20004;-96
2021/05/30 00:15:45;;;;;;;;;;;;;;;;;;;;;
2021/05/30 00:18:16;;;;;;;7.25;5.13;;;14.80;91.60;;;;;;6419267;22;19998;-96
2021/05/30 00:20:48;;;;;;;5.20;4.70;;;14.80;91.40;;;;;;6392922;22;20002;-96
2021/05/30 00:23:25;;;;;;;6.38;5.75;;;14.80;91.60;;;;;;6394431;22;20001;-95
2021/05/30 00:25:56;;;;;;;6.63;6.00;;;14.70;91.90;;;;;;6394257;22;20004;-96
2021/05/30 00:28:32;;;;;;;6.93;6.25;;;14.70;92.40;;;;;;6392251;22;20014;-96
2021/05/30 00:31:05;;;;;;;5.07;4.57;;;14.70;92.30;;;;;;6394559;22;19998;-95
2021/05/30 00:33:54;;;;;;;;;;;;;;;;;;;;;
2021/05/30 00:36:23;;;;;;;4.35;3.85;;;14.60;92.10;;;;;;6431927;22;19982;-96
2021/05/30 00:39:01;;;;;;;;;;;;;;;;;;;;;
2021/05/30 00:41:28;;;;;;;5.00;4.25;;;14.70;92.00;;;;;;6402694;22;20022;-96
2021/05/30 00:44:23;;;;;;;4.60;4.20;;;14.70;92.00;;;;;;6372550;22;19989;-94
2021/05/30 00:47:07;;;;;;;;;;;;;;;;;;;;;
2021/05/30 00:49:36;;;;;;;3.58;3.28;;;14.70;92.00;;;;;;6399670;22;20013;-96
2021/05/30 00:52:14;;;;;;;5.72;4.65;;;14.80;91.90;;;;;;6360859;22;20135;-96
2021/05/30 00:54:48;;;;;;;5.55;5.03;;;14.80;92.10;;;;;;6345804;22;20006;-96
2021/05/30 00:57:25;;;;;;;5.63;4.57;;;14.80;92.20;;;;;;6345681;22;20017;-96
2021/05/30 01:00:16;;;;;;;6.68;5.20;;;14.70;92.10;;;;;;6345794;22;20002;-95
2021/05/30 01:03:12;;;;;;;6.13;4.85;;;14.70;92.20;;;;;;6365607;22;20024;-94
2021/05/30 01:06:09;;;;;;;5.60;4.95;;;14.60;92.50;;;;;;6371676;22;20003;-95
2021/05/30 01:08:47;;;;;;;5.18;4.63;;;14.50;92.30;;;;;;6393753;22;20001;-95
2021/05/30 01:11:33;;;;;;;5.70;5.10;;;14.40;92.60;;;;;;6366657;22;20006;-95
2021/05/30 01:14:07;;;;;;;5.93;5.32;;;14.30;92.70;;;;;;6353914;22;19995;-96
2021/05/30 01:16:59;;;;;;;6.95;5.70;;;14.20;92.80;;;;;;6353049;22;20002;-96
2021/05/30 01:22:40;;;;;;;;;;;;;;;;;;;;;
2021/05/30 01:25:10;;;;;;;5.22;4.72;;;14.00;93.20;;;;;;6374474;22;20085;-96
2021/05/30 01:27:40;;;;;;;5.60;4.95;;;14.00;93.30;;;;;;6349203;22;20005;-95
2021/05/30 01:30:40;;;;;;;;;;;;;;;;;;;;;
2021/05/30 01:33:19;;;;;;;5.35;4.85;;;13.80;93.90;;;;;;6378883;22;20037;-95
2021/05/30 01:36:05;;;;;;;6.30;5.70;;;13.80;93.60;;;;;;6349837;22;19994;-96
2021/05/30 01:38:35;;;;;;;8.10;5.22;;;13.80;93.90;;;;;;6350717;22;20017;-96
2021/05/30 01:41:11;;;;;;;5.80;5.20;;;13.70;94.00;;;;;;6363864;22;20325;-96
2021/05/30 01:43:45;;;;;;;6.07;4.82;;;13.70;94.50;;;;;;6376501;22;20063;-96
2021/05/30 01:46:40;;;;;;;;;;;;;;;;;;;;;
2021/05/30 01:49:35;;;;;;;;;;;;;;;;;;;;;
2021/05/30 01:52:52;;;;;;;;;;;;;;;;;;;;;
2021/05/30 01:55:16;;;;;;;7.30;6.00;;;13.50;94.40;;;;;;6366646;22;20078;-96
2021/05/30 01:58:02;;;;;;;;;;;;;;;;;;;;;
2021/05/30 02:00:38;;;;;;;6.65;5.97;;;13.50;94.70;;;;;;6401601;22;20007;-96
2021/05/30 02:03:27;;;;;;;6.28;5.20;;;13.50;94.90;;;;;;6401574;22;20007;-96
2021/05/30 02:05:56;;;;;;;5.70;5.10;;;13.50;95.20;;;;;;6400688;22;20002;-96
2021/05/30 02:08:34;;;;;;;7.15;6.10;;;13.50;95.10;;;;;;6400249;22;19998;-95
2021/05/30 02:11:19;;;;;;;7.45;6.75;;;13.60;95.70;;;;;;6400405;22;19990;-96
2021/05/30 02:14:09;;;;;;;7.82;5.50;;;13.50;95.80;;;;;;6397745;22;20033;-96
2021/05/30 02:16:53;;;;;;;;;;;;;;;;;;;;;
2021/05/30 02:19:24;;;;;;;5.63;5.10;;;13.50;95.20;;;;;;6381083;22;20025;-96
2021/05/30 02:22:16;;;;;;;6.53;5.93;;;13.60;95.30;;;;;;6375988;22;19998;-96
2021/05/30 02:24:54;;;;;;;5.85;5.10;;;13.60;95.60;;;;;;6375531;22;20002;-96
2021/05/30 02:27:37;;;;;;;7.53;5.20;;;13.60;95.50;;;;;;6375425;22;20051;-96
2021/05/30 02:33:42;;;;;;;;;;;;;;;;;;;;;
2021/05/30 02:36:20;;;;;;;5.60;4.95;;;13.70;95.60;;;;;;6376856;22;20377;-96
2021/05/30 02:39:04;;;;;;;5.22;4.72;;;13.80;95.70;;;;;;6374213;22;20358;-96
2021/05/30 02:41:42;;;;;;;;;;;;;;;;;;;;;
2021/05/30 02:44:14;;;;;;;6.03;5.20;;;13.80;95.60;;;;;;6400920;22;19993;-96
2021/05/30 02:47:10;;;;;;;7.07;5.80;;;13.80;95.60;;;;;;6373491;22;19987;-96
2021/05/30 02:49:42;;;;;;;6.85;4.75;;;13.90;95.60;;;;;;6373454;22;20030;-95
2021/05/30 02:52:19;;;;;;;5.55;4.53;;;14.00;95.60;;;;;;6358779;22;20002;-95
2021/05/30 02:55:03;;;;;;;5.80;3.47;;;14.10;95.30;;;;;;6356090;22;20047;-96
2021/05/30 02:57:35;;;;;;;3.50;3.20;;;14.20;94.70;;;;;;6355340;22;20004;-95
2021/05/30 03:00:09;;;;;;;4.20;3.50;;;14.30;94.50;;;;;;6351956;22;20003;-95
2021/05/30 03:02:37;;;;;;;3.92;3.53;;;14.30;94.30;;;;;;6351449;22;20022;-95
2021/05/30 03:05:09;;;;;;;3.83;3.30;;;14.40;94.20;;;;;;6349935;22;20002;-96
2021/05/30 03:07:43;;;;;;;4.05;3.65;;;14.50;93.90;;;;;;6346878;22;20026;-95
2021/05/30 03:10:20;;;;;;;4.05;3.65;;;14.50;93.40;;;;;;6347417;22;20014;-95
2021/05/30 03:12:49;;;;;;;5.43;3.50;;;14.60;93.10;;;;;;6349808;22;19995;-96
2021/05/30 03:15:42;;;;;;;;;;;;;;;;;;;;;
2021/05/30 03:18:09;;;;;;;5.38;3.08;;;14.70;92.50;;;;;;6374982;22;20070;-95
2021/05/30 03:20:37;;;;;;;5.93;3.40;;;14.70;92.60;;;;;;6345939;22;20005;-96
2021/05/30 03:23:20;;;;;;;4.10;3.40;;;14.80;92.50;;;;;;6345736;22;20498;-96
2021/05/30 03:26:07;;;;;;;3.15;2.88;;;14.80;92.40;;;;;;6347195;22;20081;-95
2021/05/30 03:28:52;;;;;;;3.53;3.10;;;14.90;92.30;;;;;;6346158;22;20422;-95
2021/05/30 03:31:39;;;;;;;3.95;3.28;;;14.90;92.40;;;;;;6346186;22;20414;-96
2021/05/30 03:34:29;;;;;;;3.85;3.28;;;15.00;92.40;;;;;;6360824;22;20354;-95
2021/05/30 03:37:06;;;;;;;;;;;;;;;;;;;;;
2021/05/30 03:39:57;;;;;;;4.18;3.38;;;15.10;92.30;;;;;;6391418;22;20002;-95
2021/05/30 03:42:24;;;;;;;4.18;3.53;;;15.20;92.20;;;;;;6389578;22;19987;-95
2021/05/30 03:45:19;;;;;;;4.72;3.83;;;15.20;92.10;;;;;;6364691;22;20005;-94
2021/05/30 03:47:52;;;;;;;3.90;3.58;;;15.30;92.10;;;;;;6348235;22;20055;-94
2021/05/30 03:50:36;;;;;;;;;;;;;;;;;;;;;
2021/05/30 03:53:04;;;;;;;;;;;15.40;92.10;;;;;;6400590;22;19993;-95
2021/05/30 03:55:30;;;;;;;4.13;3.72;;;15.40;92.00;;;;;;6373335;22;19886;-95
2021/05/30 03:58:47;;;;;;;;;;;;;;;;;;;;;
2021/05/30 04:01:07;;;;;;;4.38;3.72;;;15.40;91.70;;;;;;6392498;22;19991;-95
2021/05/30 04:03:38;;;;;;;5.82;4.32;;;15.40;91.70;;;;;;6373178;22;20025;-95
2021/05/30 04:06:24;;;;;;;;;;;;;;;;;;;;;
2021/05/30 04:08:50;;;;;;;4.35;3.95;;;15.50;91.60;;;;;;6386468;22;20003;-96
2021/05/30 04:11:23;;;;;;;4.43;3.60;;;15.50;91.60;;;;;;6346974;22;20009;-94
2021/05/30 04:13:52;;;;;;;4.13;3.72;;;15.50;91.50;;;;;;6346508;22;19995;-96
2021/05/30 04:16:21;;;;;;;4.18;3.72;;;15.50;91.30;;;;;;6346867;22;20005;-95
2021/05/30 04:18:47;;;;;;;3.83;3.42;;;15.50;91.30;;;;;;6345873;22;20002;-95
2021/05/30 04:21:31;;;;;;;4.55;4.15;;;15.50;91.40;;;;;;6349125;22;20006;-95
2021/05/30 04:24:17;;;;;;;3.97;3.58;;;15.70;91.20;;;;;;6398315;22;19994;-94
2021/05/30 04:26:46;;;;;;;4.45;3.75;;;15.80;90.80;;;;;;6399260;22;19987;-93
2021/05/30 04:29:14;;;;;;;5.45;4.07;;;15.80;90.90;;;;;;6399259;22;20055;-93
2021/05/30 04:31:45;;;;;;;3.97;3.58;;;15.90;90.80;;;;;;6365735;22;19998;-96
2021/05/30 04:34:13;;;;;;;4.80;4.30;;;16.00;90.60;;;;;;6352936;22;19998;-96
2021/05/30 04:36:47;;;;;;;4.43;4.00;;;16.00;90.20;;;;;;6352536;22;19998;-95
2021/05/30 04:39:32;;;;;;;4.45;4.03;;;16.10;89.90;;;;;;6351471;22;20014;-95
2021/05/30 04:42:08;;;;;;;4.93;3.70;;;16.10;89.60;;;;;;6378616;22;20010;-96
2021/05/30 04:45:02;;;;;;;4.07;3.25;;;16.20;89.40;;;;;;6383954;22;20010;-93
2021/05/30 04:47:49;;;;;;;5.13;3.78;;;16.30;89.50;;;;;;6383534;22;19994;-94
2021/05/30 04:50:16;;;;;;;5.38;3.33;;;16.40;89.00;;;;;;6375797;22;20093;-96
2021/05/30 04:52:42;;;;;;;5.75;3.60;;;16.70;88.30;;;;;;6372526;22;19994;-95
2021/05/30 04:55:16;;;;;;;3.05;2.75;;;16.70;86.40;;;;;;6374142;22;19998;-95
2021/05/30 04:57:52;;;;;;;;;;;;;;;;;;;;;
2021/05/30 05:00:18;;;;;;;6.53;3.00;;;16.90;84.80;;;;;;6374515;22;20089;-95
2021/05/30 05:02:49;;;;;;;3.28;2.92;;;17.00;84.60;;;;;;6375751;22;19991;-96
2021/05/30 05:05:15;;;;;;;3.17;2.88;;;17.10;81.70;;;;;;6373591;22;19998;-96
2021/05/30 05:07:48;;;;;;;3.60;2.80;;;17.10;80.30;;;;;;6380783;22;20043;-95
2021/05/30 05:10:20;;;;;;;3.03;2.78;;;17.10;80.00;;;;;;6363206;22;20030;-94
2021/05/30 05:12:48;;;;;;;4.97;2.67;;;17.00;78.30;;;;;;6365311;22;20002;-94
2021/05/30 05:15:27;;;;;;;;;;;;;;;;;;;;;
2021/05/30 05:17:56;;;;;;;3.00;2.80;;;16.90;78.60;;;;;;6399556;22;20001;-96
2021/05/30 05:20:32;;;;;;;6.65;2.80;;;16.90;78.30;;;;;;6398584;22;19989;-94
2021/05/30 05:23:18;;;;;;;2.45;2.25;;;16.90;77.30;;;;;;6398554;22;19993;-95
2021/05/30 05:25:44;;;;;;;2.85;2.65;;;16.80;78.00;;;;;;6398599;22;19994;-96
2021/05/30 05:28:10;;;;;;;2.88;2.63;;;16.80;77.60;;;;;;6398361;22;19991;-95
2021/05/30 05:30:38;;;;;;;2.25;2.10;;;16.80;77.20;;;;;;6399568;22;20013;-96
2021/05/30 05:33:04;;;;;;;3.60;2.70;;;16.80;78.00;;;;;;6392711;22;20010;-95
2021/05/30 05:35:53;;;;;;;3.22;2.92;;;16.70;77.50;;;;;;6380141;22;20025;-96
2021/05/30 05:38:26;;;;;;;2.65;2.45;;;16.70;76.40;;;;;;6380700;22;19998;-96
2021/05/30 05:40:55;;;;;;;2.70;2.50;;;16.70;77.90;;;;;;6386222;22;20018;-96
2021/05/30 05:43:21;;;;;;;2.63;2.42;;;16.80;78.20;;;;;;6410605;22;19998;-95
2021/05/30 05:45:50;;;;;;;2.95;2.75;;;16.90;77.90;;;;;;6386133;22;20009;-96
2021/05/30 05:48:29;;;;;;;;;;;;;;;;;;;;;
2021/05/30 05:51:15;;;;;;;2.75;2.55;;;17.10;76.70;;;;;;6424068;22;20005;-96
2021/05/30 05:53:56;;;;;;;2.92;2.72;;;17.00;76.10;;;;;;6398936;22;20005;-93
2021/05/30 05:56:22;;;;;;;3.72;2.97;;;17.10;76.20;;;;;;6403226;22;20016;-95
2021/05/30 05:58:47;;;;;;;4.85;3.20;;;17.10;75.40;;;;;;6401910;22;20002;-95
2021/05/30 06:01:28;;;;;;;2.97;2.78;;;17.20;75.70;;;;;;6392791;22;20059;-95
2021/05/30 06:04:12;;;;;;;2.55;2.35;;;17.10;75.40;;;;;;6396775;22;20032;-93
2021/05/30 06:06:40;;;;;;;8.00;2.40;;;17.10;76.20;;;;;;6405271;22;20045;-95
2021/05/30 06:09:11;;;;;;;3.17;2.72;;;17.20;76.40;;;;;;6405494;22;19998;-95
2021/05/30 06:11:46;;;;;;;2.47;2.30;;;17.40;75.40;;;;;;6404505;22;20049;-95
2021/05/30 06:14:25;;;;;;;;;;;;;;;;;;;;;
2021/05/30 06:17:00;;;;;;;5.25;2.80;;;17.60;75.60;;;;;;6418575;22;20029;-96
2021/05/30 06:19:44;;;;;;;3.25;2.95;;;17.70;74.60;;;;;;6390453;22;20010;-96
2021/05/30 06:22:18;;;;;;;2.72;2.53;;;17.70;74.90;;;;;;6389292;22;19998;-96
2021/05/30 06:24:45;;;;;;;4.00;3.05;;;17.80;74.20;;;;;;6382556;22;20005;-96
2021/05/30 06:27:25;;;;;;;3.22;2.90;;;17.90;73.90;;;;;;6382440;22;20016;-96
2021/05/30 06:30:08;;;;;;;3.15;2.88;;;17.80;73.60;;;;;;6381447;22;20017;-96
2021/05/30 06:32:43;;;;;;;3.53;3.20;;;17.80;73.30;;;;;;6382773;22;20130;-95
2021/05/30 06:35:17;;;;;;;3.35;2.63;;;17.80;73.00;;;;;;6381321;22;20417;-96
2021/05/30 06:37:43;;;;;;;3.13;2.75;;;17.70;73.60;;;;;;6381180;22;20002;-96
2021/05/30 06:40:30;;;;;;;3.63;2.60;;;17.70;74.10;;;;;;6382033;22;20018;-96
2021/05/30 06:42:59;;;;;;;2.45;2.25;;;17.70;72.40;;;;;;6379800;22;20009;-96
2021/05/30 06:45:25;;;;;;;3.28;2.80;;;17.70;73.60;;;;;;6380217;22;20005;-96
2021/05/30 06:47:58;;;;;;;2.45;2.15;;;17.70;73.50;;;;;;6410733;22;19994;-96
2021/05/30 06:50:41;;;;;;;;;;;;;;;;;;;;;
2021/05/30 06:53:16;;;;;;;3.22;2.50;;;17.70;72.50;;;;;;6423927;22;20005;-96
2021/05/30 06:55:44;;;;;;;2.50;2.30;;;17.70;71.90;;;;;;6395868;22;20005;-94
2021/05/30 06:58:31;;;;;;;2.72;2.53;;;17.60;72.20;;;;;;6395269;22;19997;-94
2021/05/30 07:00:56;;;;;;;4.03;2.53;;;17.70;72.70;;;;;;6421823;22;20002;-95
2021/05/30 07:03:33;;;;;;;2.13;2.03;;;17.80;71.80;;;;;;6394106;22;20076;-96
2021/05/30 07:06:34;;;;;;;2.67;2.47;;;17.80;71.90;;;;;;6402995;22;20006;-94
2021/05/30 07:09:04;;;;;;;2.15;2.00;;;17.90;71.90;;;;;;6405208;22;20001;-93
2021/05/30 07:11:46;;;;;;;3.00;2.70;;;18.00;71.70;;;;;;6405208;22;19994;-95
2021/05/30 07:14:29;;;;;;;2.50;2.30;;;18.00;70.50;;;;;;6428051;22;20005;-95
2021/05/30 07:16:56;;;;;;;2.53;1.90;;;17.90;70.40;;;;;;6404555;22;19982;-95
2021/05/30 07:19:29;;;;;;;2.60;2.40;;;17.90;71.20;;;;;;6400271;22;20021;-95
2021/05/30 07:22:10;;;;;;;3.30;2.72;;;17.90;70.90;;;;;;6404006;22;20002;-96
2021/05/30 07:24:38;;;;;;;3.00;2.70;;;17.80;70.70;;;;;;6380675;22;20002;-95
2021/05/30 07:27:17;;;;;;;;;;;;;;;;;;;;;
2021/05/30 07:29:56;;;;;;;2.55;2.35;;;17.90;70.20;;;;;;6406494;22;20093;-96
2021/05/30 07:32:34;;;;;;;3.72;2.85;;;17.80;70.00;;;;;;6378149;22;20021;-94
2021/05/30 07:35:10;;;;;;;3.05;2.75;;;17.80;70.30;;;;;;6379821;22;20002;-95
2021/05/30 07:37:39;;;;;;;3.03;2.63;;;17.90;70.70;;;;;;6379631;22;20081;-95
2021/05/30 07:40:08;;;;;;;2.75;2.55;;;17.90;69.70;;;;;;6377390;22;20002;-96
2021/05/30 07:42:34;;;;;;;2.80;2.35;;;17.80;69.40;;;;;;6377442;22;19998;-96
2021/05/30 07:45:05;;;;;;;2.78;2.58;;;17.90;70.40;;;;;;6379072;22;20004;-96
2021/05/30 07:47:34;;;;;;;2.70;2.50;;;18.10;70.70;;;;;;6381077;22;20046;-96
2021/05/30 07:50:10;;;;;;;;;;;;;;;;;;;;;
2021/05/30 07:52:49;;;;;;;;;;;;;;;;;;;;;
2021/05/30 07:55:18;;;;;;;3.75;2.50;;;18.40;68.70;;;;;;6410779;22;20437;-95
2021/05/30 07:57:46;;;;;;;2.97;2.67;;;18.40;69.40;;;;;;6384646;22;20006;-96
2021/05/30 08:00:16;;;;;;;2.90;2.70;;;18.60;69.20;;;;;;6385242;22;20505;-96
2021/05/30 08:02:45;;;;;;;2.80;2.60;;;18.60;68.90;;;;;;6385259;22;20002;-96
2021/05/30 08:05:28;;;;;;;;;;;;;;;;;;;;;
2021/05/30 08:08:09;;;;;;;3.10;2.50;;;18.80;69.10;;;;;;6430241;22;20002;-93
2021/05/30 08:10:47;;;;;;;;;;;;;;;;;;;;;
2021/05/30 08:13:21;;;;;;;2.95;2.65;;;18.90;67.80;;;;;;6430937;22;19982;-93
2021/05/30 08:15:47;;;;;;;2.75;2.55;;;18.90;68.00;;;;;;6402899;22;19997;-93
2021/05/30 08:18:13;;;;;;;2.28;2.17;;;18.80;68.10;;;;;;6397528;22;20330;-95
2021/05/30 08:20:44;;;;;;;6.13;2.60;;;18.90;68.30;;;;;;6382913;22;19998;-94
2021/05/30 08:23:10;;;;;;;2.50;2.30;;;18.90;68.10;;;;;;6385662;22;19998;-96
2021/05/30 08:25:36;;;;;;;2.80;2.55;;;18.90;68.00;;;;;;6383733;22;20306;-95
2021/05/30 08:28:08;;;;;;;2.78;2.58;;;19.00;67.90;;;;;;6384454;22;19994;-95
2021/05/30 08:30:37;;;;;;;2.70;2.50;;;19.10;67.40;;;;;;6381808;22;20010;-94
2021/05/30 08:33:05;;;;;;;2.83;2.40;;;19.10;67.20;;;;;;6382590;22;19998;-96
2021/05/30 08:35:31;;;;;;;2.55;2.35;;;19.10;66.30;;;;;;6391546;22;20002;-95
2021/05/30 08:37:59;;;;;;;2.72;2.53;;;19.10;66.20;;;;;;6396544;22;20009;-95
2021/05/30 08:40:25;;;;;;;2.28;2.08;;;19.10;66.50;;;;;;6395926;22;20096;-96
2021/05/30 08:42:54;;;;;;;2.10;2.00;;;19.10;66.50;;;;;;6401364;22;20421;-94
2021/05/30 08:45:24;;;;;;;2.92;2.15;;;19.20;66.60;;;;;;6430517;22;19994;-96
2021/05/30 08:47:50;;;;;;;2.25;2.00;;;19.50;66.10;;;;;;6403173;22;20042;-94
2021/05/30 08:50:22;;;;;;;2.13;1.92;;;19.70;65.90;;;;;;6430699;22;20017;-93
2021/05/30 08:52:51;;;;;;;2.65;2.45;;;19.80;65.00;;;;;;6394817;22;20059;-95
2021/05/30 08:55:20;;;;;;;2.53;2.33;;;19.90;63.80;;;;;;6380777;22;20006;-94
2021/05/30 08:57:46;;;;;;;2.60;2.40;;;19.90;64.60;;;;;;6380646;22;20494;-95
2021/05/30 09:00:16;;;;;;;3.45;2.17;;;20.00;64.20;;;;;;6408723;22;19993;-95
2021/05/30 09:02:42;;;;;;;2.55;2.08;;;20.10;64.30;;;;;;6377502;22;20002;-95
2021/05/30 09:05:08;;;;;;;2.60;2.42;;;20.20;64.10;;;;;;6378171;22;20013;-96
2021/05/30 09:07:43;;;;;;;2.20;2.10;;;20.20;63.20;;;;;;6379720;22;19994;-94
2021/05/30 09:10:26;;;;;;;2.10;1.98;;;20.30;63.20;;;;;;6408189;22;20401;-94
2021/05/30 09:13:13;;;;;;;2.67;2.40;;;20.30;62.90;;;;;;6377585;22;20002;-95
2021/05/30 09:16:08;;;;;;;3.08;2.35;;;20.40;61.80;;;;;;6380380;22;20444;-95
2021/05/30 09:18:34;;;;;;;2.38;2.25;;;20.30;62.40;;;;;;6380669;22;20100;-95
2021/05/30 09:21:12;;;;;;;2.03;1.92;;;20.30;62.30;;;;;;6379005;22;20002;-95
2021/05/30 09:27:27;;;;;;;2.10;2.00;;;20.10;62.10;;;;;;6275127;22;20134;-85
2021/05/30 09:30:37;;;;;;;2.33;2.13;;;19.90;62.70;;;;;;6250272;22;20102;-86
2021/05/30 09:33:13;;;;;;;2.28;2.17;;;20.00;62.90;;;;;;6251240;22;19999;-87
2021/05/30 09:35:49;;;;;;;2.38;2.17;;;20.00;63.00;;;;;;6251610;22;20027;-87
2021/05/30 09:38:25;;;;;;;3.72;2.50;;;20.00;63.30;;;;;;6352704;22;20059;-87
2021/05/30 09:40:58;;;;;;;2.22;2.03;;;20.10;63.40;;;;;;6376770;22;20002;-87
2021/05/30 09:43:28;;;;;;;2.25;2.10;;;20.30;62.70;;;;;;6377083;22;19998;-87
2021/05/30 09:46:07;;;;;;;2.60;2.40;;;20.50;61.50;;;;;;6376849;22;20009;-88
2021/05/30 09:48:37;;;;;;;3.20;2.10;;;20.40;61.00;;;;;;6377051;22;20023;-87
2021/05/30 09:51:29;;;;;;;3.38;2.22;;;20.40;61.50;;;;;;6404810;22;20043;-88
2021/05/30 09:54:16;;;;;;;3.53;2.08;;;20.40;61.40;;;;;;6377787;22;20097;-87
2021/05/30 09:56:47;;;;;;;4.70;2.60;;;20.30;60.50;;;;;;6378320;22;20025;-87
2021/05/30 09:59:18;;;;;;;2.53;2.22;;;20.10;61.20;;;;;;6378262;22;20059;-88
2021/05/30 10:01:52;;;;;;;3.47;1.98;;;20.20;61.70;;;;;;6376914;22;20021;-88
2021/05/30 10:04:19;;;;;;;1.92;1.83;;;20.40;61.20;;;;;;6412736;22;20026;-88
2021/05/30 10:06:45;;;;;;;2.05;1.95;;;20.50;60.20;;;;;;6389022;22;19997;-88
2021/05/30 10:09:12;;;;;;;2.53;2.33;;;20.50;61.00;;;;;;6388621;22;20448;-87
2021/05/30 10:11:39;;;;;;;2.05;1.95;;;20.40;60.10;;;;;;6395709;22;20004;-86
2021/05/30 10:14:05;;;;;;;2.40;2.20;;;20.30;60.60;;;;;;6401685;22;20030;-87
2021/05/30 10:16:32;;;;;;;1.90;1.80;;;20.20;60.70;;;;;;6402051;22;20007;-88
2021/05/30 10:19:21;;;;;;;2.53;2.25;;;20.20;61.00;;;;;;6401609;22;20009;-88
2021/05/30 10:21:53;;;;;;;2.25;2.05;;;20.20;61.10;;;;;;6375378;22;19986;-87
2021/05/30 10:24:22;;;;;;;2.00;1.90;;;20.20;61.30;;;;;;6400068;22;20093;-87
2021/05/30 10:27:13;;;;;;;2.42;1.80;;;20.30;61.50;;;;;;6411677;22;20006;-87
2021/05/30 10:29:38;;;;;;;2.75;2.13;;;20.40;59.90;;;;;;6375951;22;20016;-87
2021/05/30 10:32:17;;;;;;;2.33;2.10;;;20.40;61.10;;;;;;6375856;22;20073;-89
2021/05/30 10:35:26;;;;;;;4.20;1.85;;;20.40;60.50;;;;;;6404348;22;20020;-90
2021/05/30 10:38:30;;;;;;;2.10;1.90;;;20.40;60.70;;;;;;6373731;22;19997;-91
2021/05/30 10:41:14;;;;;;;2.13;1.97;;;20.50;60.60;;;;;;6375231;22;20020;-86
2021/05/30 10:43:41;;;;;;;2.17;2.08;;;20.40;60.50;;;;;;6375177;22;20002;-87
2021/05/30 10:46:08;;;;;;;2.10;1.95;;;20.40;60.60;;;;;;6374834;22;20009;-88
2021/05/30 10:48:35;;;;;;;4.20;2.53;;;20.30;60.50;;;;;;6374501;22;20010;-88
2021/05/30 10:51:13;;;;;;;2.40;2.20;;;20.20;61.10;;;;;;6374264;22;20010;-88
2021/05/30 10:53:47;;;;;;;2.55;2.35;;;20.20;61.00;;;;;;6371924;22;20026;-87
2021/05/30 10:56:31;;;;;;;2.70;2.40;;;20.30;61.30;;;;;;6342336;22;20430;-87
2021/05/30 10:59:15;;;;;;;3.40;2.65;;;20.50;60.10;;;;;;6342606;22;20077;-87
2021/05/30 11:01:47;;;;;;;3.25;2.85;;;20.50;60.20;;;;;;6341915;22;20082;-88
2021/05/30 11:04:29;;;;;;;3.53;1.95;;;20.60;60.90;;;;;;6342214;22;19994;-87
2021/05/30 11:07:22;;;;;;;2.40;2.20;;;20.60;60.50;;;;;;6344203;22;20006;-89
2021/05/30 11:10:19;;;;;;;;;;;;;;;;;;;;;
